Time;durP1;ratioP1;P1;durP2;ratioP2;P2;SDS_P1;SDS_P2;PMS_P1;PMS_P2;Temp;Humidity;BMP_temperature;BMP_pressure;BME280_temperature;BME280_humidity;BME280_pressure;Samples;Min_cycle;Max_cycle;Signal;HPM_P1;HPM_P2
2022/10/28 00:00:31;;;;;;;70.17;8.43;;;15.30;1.00;;;;;;5053817;28;20793;-73
2022/10/28 00:03:00;;;;;;;64.47;8.20;;;15.10;1.00;;;;;;5054170;28;20984;-73
2022/10/28 00:05:27;;;;;;;63.97;7.70;;;15.10;1.00;;;;;;5054214;28;20449;-73
2022/10/28 00:07:53;;;;;;;66.57;8.30;;;15.00;1.00;;;;;;5053459;28;20492;-73
2022/10/28 00:10:20;;;;;;;63.80;7.70;;;14.90;1.00;;;;;;5053250;28;20457;-73
2022/10/28 00:12:48;;;;;;;75.90;9.13;;;14.90;1.00;;;;;;5054198;28;20457;-73
2022/10/28 00:15:15;;;;;;;72.57;8.60;;;14.70;1.00;;;;;;5054156;28;20463;-73
2022/10/28 00:17:42;;;;;;;67.90;8.30;;;14.90;1.00;;;;;;5053954;28;20464;-73
2022/10/28 00:20:10;;;;;;;67.63;7.50;;;14.90;1.00;;;;;;5053106;28;20441;-73
2022/10/28 00:22:37;;;;;;;72.50;8.27;;;14.70;1.00;;;;;;5054267;28;20452;-73
2022/10/28 00:25:04;;;;;;;64.80;7.80;;;14.80;1.00;;;;;;5053727;28;20452;-73
2022/10/28 00:27:32;;;;;;;67.40;6.53;;;14.80;1.00;;;;;;5053994;28;20508;-73
2022/10/28 00:30:00;;;;;;;70.70;8.70;;;14.90;1.00;;;;;;5053089;28;20885;-73
2022/10/28 00:32:29;;;;;;;64.70;7.67;;;15.00;1.00;;;;;;5053761;28;20448;-73
2022/10/28 00:34:55;;;;;;;63.67;8.10;;;15.00;1.00;;;;;;5053461;28;20464;-73
2022/10/28 00:37:22;;;;;;;67.47;7.70;;;15.00;1.00;;;;;;5053445;28;20464;-73
2022/10/28 00:39:49;;;;;;;66.27;8.50;;;15.10;1.00;;;;;;5052697;28;20953;-73
2022/10/28 00:42:20;;;;;;;66.07;7.70;;;14.90;1.00;;;;;;5053672;28;20462;-73
2022/10/28 00:44:58;;;;;;;66.47;8.10;;;15.00;1.00;;;;;;5053428;28;20944;-73
2022/10/28 00:47:36;;;;;;;69.10;9.10;;;15.00;1.00;;;;;;5053240;28;20491;-73
2022/10/28 00:50:19;;;;;;;64.00;7.47;;;15.00;1.00;;;;;;5052450;28;20448;-73
2022/10/28 00:52:51;;;;;;;66.93;8.53;;;14.90;1.00;;;;;;5053306;28;20971;-73
2022/10/28 00:55:19;;;;;;;65.70;8.17;;;15.00;1.00;;;;;;5053265;28;20975;-73
2022/10/28 00:57:46;;;;;;;66.57;7.63;;;15.00;1.00;;;;;;5053201;28;20468;-73
2022/10/28 01:00:14;;;;;;;67.80;7.50;;;14.90;1.00;;;;;;5052284;28;20828;-73
2022/10/28 01:02:46;;;;;;;67.30;8.10;;;15.00;1.00;;;;;;5052928;28;20444;-73
2022/10/28 01:05:16;;;;;;;70.63;7.63;;;15.00;1.00;;;;;;5053240;28;20825;-73
2022/10/28 01:07:44;;;;;;;62.80;7.20;;;15.10;1.00;;;;;;5052813;28;20502;-73
2022/10/28 01:10:12;;;;;;;65.77;8.10;;;15.00;1.00;;;;;;5052288;28;20448;-73
2022/10/28 01:12:52;;;;;;;76.80;7.50;;;15.00;1.00;;;;;;5052914;28;20830;-73
2022/10/28 01:15:28;;;;;;;66.77;7.87;;;14.90;1.00;;;;;;5053099;28;20447;-73
2022/10/28 01:18:04;;;;;;;69.20;7.13;;;15.00;1.00;;;;;;5052210;28;20468;-73
2022/10/28 01:21:03;;;;;;;64.43;8.27;;;15.00;1.00;;;;;;5051899;28;20823;-73
2022/10/28 01:23:38;;;;;;;65.20;7.17;;;14.90;1.00;;;;;;5052663;28;20447;-73
2022/10/28 01:26:38;;;;;;;68.63;7.70;;;15.00;1.00;;;;;;5052604;28;20970;-73
2022/10/28 01:29:40;;;;;;;69.37;8.23;;;14.90;1.00;;;;;;5038869;28;20502;-73
2022/10/28 01:32:13;;;;;;;64.43;7.80;;;14.90;1.00;;;;;;5047144;28;20459;-73
2022/10/28 01:34:52;;;;;;;65.37;7.60;;;14.90;1.00;;;;;;5052435;28;20588;-73
2022/10/28 01:37:28;;;;;;;65.13;7.93;;;14.80;1.00;;;;;;5052314;28;20467;-73
2022/10/28 01:40:02;;;;;;;63.90;8.03;;;14.60;1.00;;;;;;5051759;28;20448;-73
2022/10/28 01:42:36;;;;;;;66.20;7.40;;;14.70;1.00;;;;;;5052463;28;20877;-73
2022/10/28 01:45:11;;;;;;;64.13;7.60;;;14.80;1.00;;;;;;5052405;28;20542;-73
2022/10/28 01:47:45;;;;;;;67.70;6.90;;;14.80;1.00;;;;;;5051956;28;20514;-73
2022/10/28 01:50:18;;;;;;;66.57;7.90;;;14.60;1.00;;;;;;5051449;28;20452;-73
2022/10/28 01:52:47;;;;;;;64.47;7.77;;;14.60;1.00;;;;;;5051981;28;20470;-73
2022/10/28 01:55:18;;;;;;;69.00;8.17;;;14.60;1.00;;;;;;5052522;28;20452;-73
2022/10/28 01:57:48;;;;;;;65.80;7.10;;;14.70;1.00;;;;;;5052458;28;20473;-73
2022/10/28 02:00:15;;;;;;;68.13;7.63;;;14.70;1.00;;;;;;5051426;28;20444;-73
2022/10/28 02:02:46;;;;;;;63.87;7.90;;;14.70;1.00;;;;;;5051868;28;20448;-73
2022/10/28 02:05:39;;;;;;;69.70;7.60;;;14.60;1.00;;;;;;5051958;28;20444;-73
2022/10/28 02:08:22;;;;;;;63.90;6.70;;;14.60;1.00;;;;;;5051667;28;20872;-73
2022/10/28 02:11:01;;;;;;;64.10;7.40;;;14.50;1.00;;;;;;5051497;28;20459;-73
2022/10/28 02:13:38;;;;;;;64.80;7.50;;;14.50;1.00;;;;;;5051853;28;20495;-73
2022/10/28 02:16:18;;;;;;;65.83;7.50;;;14.50;1.00;;;;;;5051800;28;20451;-73
2022/10/28 02:18:53;;;;;;;62.80;6.97;;;14.60;1.00;;;;;;5050934;28;20448;-73
2022/10/28 02:21:30;;;;;;;70.33;7.47;;;14.50;1.00;;;;;;5052026;28;20447;-73
2022/10/28 02:24:05;;;;;;;65.90;7.53;;;14.50;1.00;;;;;;5051879;28;20577;-73
2022/10/28 02:26:38;;;;;;;66.43;8.70;;;14.50;1.00;;;;;;5051982;28;20993;-73
2022/10/28 02:29:11;;;;;;;64.70;7.30;;;14.50;1.00;;;;;;5050792;28;20488;-73
2022/10/28 02:31:43;;;;;;;71.70;7.60;;;14.50;1.00;;;;;;5051669;28;20449;-72
2022/10/28 02:34:15;;;;;;;66.30;8.87;;;14.50;1.00;;;;;;5051702;28;20458;-72
2022/10/28 02:36:46;;;;;;;73.23;7.43;;;14.40;1.00;;;;;;5051561;28;20471;-72
2022/10/28 02:39:14;;;;;;;63.77;7.80;;;14.50;1.00;;;;;;5050813;28;20483;-72
2022/10/28 02:41:45;;;;;;;66.70;6.87;;;14.40;1.00;;;;;;5051470;28;20456;-72
2022/10/28 02:44:17;;;;;;;65.67;7.43;;;14.50;1.00;;;;;;5051756;28;20450;-72
2022/10/28 02:46:47;;;;;;;71.97;7.83;;;14.40;1.00;;;;;;5051377;28;21006;-72
2022/10/28 02:49:15;;;;;;;65.83;7.80;;;14.30;1.00;;;;;;5050751;28;20786;-72
2022/10/28 02:51:46;;;;;;;69.97;8.00;;;14.40;1.00;;;;;;5051211;28;20448;-72
2022/10/28 02:54:15;;;;;;;68.40;7.27;;;14.30;1.00;;;;;;5051358;28;20455;-72
2022/10/28 02:56:49;;;;;;;64.40;7.60;;;14.30;1.00;;;;;;5051539;28;20472;-72
2022/10/28 02:59:15;;;;;;;65.47;7.07;;;14.40;1.00;;;;;;5050670;28;20441;-72
2022/10/28 03:01:42;;;;;;;66.70;7.40;;;14.40;1.00;;;;;;5051410;28;20817;-72
2022/10/28 03:04:09;;;;;;;69.50;7.67;;;14.40;1.00;;;;;;5051460;28;20451;-72
2022/10/28 03:06:37;;;;;;;64.33;7.80;;;14.40;1.00;;;;;;5051146;28;20482;-72
2022/10/28 03:09:04;;;;;;;64.80;7.10;;;14.40;1.00;;;;;;5050340;28;20487;-72
2022/10/28 03:11:31;;;;;;;63.27;6.80;;;14.40;1.00;;;;;;5051433;28;20459;-72
2022/10/28 03:13:57;;;;;;;65.97;8.20;;;14.40;1.00;;;;;;5051211;28;20954;-72
2022/10/28 03:16:25;;;;;;;63.40;6.80;;;14.40;1.00;;;;;;5051154;28;20480;-72
2022/10/28 03:18:52;;;;;;;62.43;7.20;;;14.50;1.00;;;;;;5050458;28;20463;-72
2022/10/28 03:21:19;;;;;;;63.87;7.97;;;14.50;1.00;;;;;;5051035;28;20644;-72
2022/10/28 03:23:47;;;;;;;69.03;7.37;;;14.50;1.00;;;;;;5051570;28;20447;-72
2022/10/28 03:26:14;;;;;;;69.27;8.10;;;14.50;1.00;;;;;;5051501;28;20452;-72
2022/10/28 03:28:40;;;;;;;64.17;7.90;;;14.50;1.00;;;;;;5050337;28;20479;-72
2022/10/28 03:31:07;;;;;;;66.80;7.43;;;14.50;1.00;;;;;;5051062;28;20448;-72
2022/10/28 03:33:34;;;;;;;62.83;6.40;;;14.50;1.00;;;;;;5050908;28;20454;-72
2022/10/28 03:36:01;;;;;;;67.07;7.30;;;14.50;1.00;;;;;;5050877;28;20464;-72
2022/10/28 03:38:27;;;;;;;65.00;7.30;;;14.50;1.00;;;;;;5050949;28;20443;-72
2022/10/28 03:40:55;;;;;;;65.70;7.87;;;14.50;1.00;;;;;;5050630;28;20448;-72
2022/10/28 03:43:22;;;;;;;75.30;8.80;;;14.60;1.00;;;;;;5054213;28;20471;-72
2022/10/28 03:45:49;;;;;;;65.30;7.70;;;14.60;1.00;;;;;;5054610;28;20444;-72
2022/10/28 03:48:16;;;;;;;65.17;8.17;;;14.60;1.00;;;;;;5054249;28;20490;-73
2022/10/28 03:50:43;;;;;;;67.70;7.70;;;14.70;1.00;;;;;;5053621;28;20456;-73
2022/10/28 03:53:09;;;;;;;63.27;7.27;;;14.70;1.00;;;;;;5054569;28;20459;-73
2022/10/28 03:55:36;;;;;;;70.53;8.00;;;14.70;1.00;;;;;;5054480;28;20458;-73
2022/10/28 03:58:04;;;;;;;64.63;7.30;;;14.70;1.00;;;;;;5054210;28;20467;-73
2022/10/28 04:00:31;;;;;;;67.27;8.07;;;14.70;1.00;;;;;;5053479;28;20455;-73
2022/10/28 04:02:58;;;;;;;66.33;7.87;;;14.80;1.00;;;;;;5053841;28;20451;-73
2022/10/28 04:05:24;;;;;;;65.13;7.33;;;14.80;1.00;;;;;;5054612;28;20455;-73
2022/10/28 04:07:52;;;;;;;67.50;7.47;;;14.80;1.00;;;;;;5054145;28;20578;-73
2022/10/28 04:10:19;;;;;;;65.03;7.90;;;14.80;1.00;;;;;;5053635;28;20499;-73
2022/10/28 04:12:46;;;;;;;71.80;7.83;;;14.70;1.00;;;;;;5053996;28;20458;-73
2022/10/28 04:15:14;;;;;;;64.10;7.67;;;14.50;1.00;;;;;;5053839;28;20940;-73
2022/10/28 04:17:41;;;;;;;64.50;7.30;;;14.00;1.00;;;;;;5054217;28;20472;-73
2022/10/28 04:20:09;;;;;;;67.20;7.43;;;13.50;1.00;;;;;;5053283;28;20452;-73
2022/10/28 04:22:35;;;;;;;66.10;7.80;;;13.30;1.00;;;;;;5054031;28;20460;-73
2022/10/28 04:25:02;;;;;;;65.60;7.33;;;13.00;1.00;;;;;;5053905;28;20760;-73
2022/10/28 04:27:29;;;;;;;76.60;8.87;;;13.00;1.00;;;;;;5053733;28;20469;-73
2022/10/28 04:29:56;;;;;;;64.07;7.30;;;13.00;1.00;;;;;;5052874;28;20488;-73
2022/10/28 04:32:24;;;;;;;66.17;7.77;;;13.50;1.00;;;;;;5053620;28;20457;-73
2022/10/28 04:34:51;;;;;;;66.07;7.13;;;14.00;1.00;;;;;;5053614;28;20673;-73
2022/10/28 04:37:17;;;;;;;79.67;9.03;;;14.30;1.00;;;;;;5053841;28;20476;-73
2022/10/28 04:39:44;;;;;;;62.47;7.30;;;14.50;1.00;;;;;;5053215;28;20811;-73
2022/10/28 04:42:11;;;;;;;64.77;7.77;;;14.60;1.00;;;;;;5053609;28;20474;-73
2022/10/28 04:44:38;;;;;;;65.47;7.80;;;14.60;1.00;;;;;;5053387;28;20452;-73
2022/10/28 04:47:05;;;;;;;66.97;8.60;;;14.60;1.00;;;;;;5053323;28;20472;-73
2022/10/28 04:49:33;;;;;;;64.30;8.00;;;14.50;1.00;;;;;;5052666;28;20488;-73
2022/10/28 04:51:59;;;;;;;66.27;7.70;;;14.40;1.00;;;;;;5053301;28;20462;-73
2022/10/28 04:54:26;;;;;;;70.07;7.73;;;14.40;1.00;;;;;;5053212;28;20451;-73
2022/10/28 04:56:54;;;;;;;67.80;7.80;;;14.30;1.00;;;;;;5053243;28;20836;-73
2022/10/28 04:59:21;;;;;;;64.30;7.23;;;14.10;1.00;;;;;;5052239;28;20449;-73
2022/10/28 05:01:48;;;;;;;77.00;8.53;;;14.20;1.00;;;;;;5053281;28;20448;-73
2022/10/28 05:04:14;;;;;;;68.00;6.63;;;14.10;1.00;;;;;;5053049;28;20462;-73
2022/10/28 05:06:43;;;;;;;63.27;7.00;;;14.40;1.00;;;;;;5053141;28;20916;-73
2022/10/28 05:09:10;;;;;;;62.40;6.70;;;14.60;1.00;;;;;;5052190;28;20480;-73
2022/10/28 05:11:37;;;;;;;68.33;7.37;;;14.70;1.00;;;;;;5052871;28;20457;-73
2022/10/28 05:14:04;;;;;;;63.97;7.07;;;14.80;1.00;;;;;;5052885;28;20460;-73
2022/10/28 05:16:31;;;;;;;67.00;8.63;;;14.90;1.00;;;;;;5052964;28;20833;-73
2022/10/28 05:18:58;;;;;;;66.47;7.57;;;14.90;1.00;;;;;;5052180;28;20550;-73
2022/10/28 05:21:25;;;;;;;64.53;7.37;;;15.10;1.00;;;;;;5052725;28;20448;-73
2022/10/28 05:23:53;;;;;;;66.73;7.30;;;15.10;1.00;;;;;;5052750;28;20462;-73
2022/10/28 05:26:20;;;;;;;65.07;7.10;;;15.20;1.00;;;;;;5052438;28;20473;-73
2022/10/28 05:28:49;;;;;;;64.93;7.63;;;15.10;1.00;;;;;;5052000;28;20509;-73
2022/10/28 05:31:16;;;;;;;66.27;8.10;;;15.00;1.00;;;;;;5052754;28;20441;-73
2022/10/28 05:33:43;;;;;;;64.30;7.53;;;14.70;1.00;;;;;;5052332;28;20934;-73
2022/10/28 05:36:10;;;;;;;64.73;7.80;;;13.90;1.00;;;;;;5052453;28;20460;-73
2022/10/28 05:38:38;;;;;;;66.40;8.70;;;13.50;1.00;;;;;;5051717;28;20975;-73
2022/10/28 05:41:07;;;;;;;66.43;7.60;;;13.50;1.00;;;;;;5052530;28;20459;-73
2022/10/28 05:43:33;;;;;;;66.90;8.20;;;13.60;1.00;;;;;;5052424;28;20459;-73
2022/10/28 05:46:01;;;;;;;66.53;8.40;;;13.90;1.00;;;;;;5052314;28;20457;-73
2022/10/28 05:48:28;;;;;;;64.50;7.70;;;14.30;1.00;;;;;;5052051;28;20460;-73
2022/10/28 05:50:55;;;;;;;63.07;6.87;;;14.40;1.00;;;;;;5051731;28;20455;-73
2022/10/28 05:53:22;;;;;;;66.60;6.80;;;14.50;1.00;;;;;;5051989;28;20963;-73
2022/10/28 05:55:48;;;;;;;65.07;7.10;;;14.60;1.00;;;;;;5052347;28;20456;-73
2022/10/28 05:58:16;;;;;;;66.53;7.63;;;14.70;1.00;;;;;;5052014;28;20468;-73
2022/10/28 06:00:43;;;;;;;65.07;7.30;;;14.80;1.00;;;;;;5051537;28;20825;-73
2022/10/28 06:03:11;;;;;;;63.77;7.53;;;14.80;1.00;;;;;;5052094;28;20455;-73
2022/10/28 06:05:41;;;;;;;65.30;7.37;;;14.80;1.00;;;;;;5051563;28;20459;-73
2022/10/28 06:08:09;;;;;;;65.00;7.60;;;14.90;1.00;;;;;;5051891;28;20804;-73
2022/10/28 06:10:36;;;;;;;67.07;8.10;;;14.80;1.00;;;;;;5051233;28;20507;-73
2022/10/28 06:13:03;;;;;;;63.33;6.67;;;14.90;1.00;;;;;;5051882;28;20456;-73
2022/10/28 06:15:31;;;;;;;65.27;8.10;;;14.90;1.00;;;;;;5051892;28;20452;-73
2022/10/28 06:17:58;;;;;;;63.80;7.10;;;14.90;1.00;;;;;;5051645;28;20570;-73
2022/10/28 06:20:25;;;;;;;67.13;7.90;;;14.90;1.00;;;;;;5051534;28;20448;-73
2022/10/28 06:22:55;;;;;;;65.90;7.67;;;15.00;1.00;;;;;;5051904;28;20459;-73
2022/10/28 06:25:25;;;;;;;63.60;7.13;;;15.00;1.00;;;;;;5051889;28;20514;-73
2022/10/28 06:27:53;;;;;;;67.07;8.60;;;15.00;1.00;;;;;;5051700;28;20865;-73
2022/10/28 06:30:20;;;;;;;68.03;7.83;;;15.10;1.00;;;;;;5050773;28;21046;-73
2022/10/28 06:32:48;;;;;;;70.40;7.77;;;15.10;1.00;;;;;;5051752;28;20452;-73
2022/10/28 06:35:15;;;;;;;65.80;7.13;;;15.10;1.00;;;;;;5051401;28;20464;-73
2022/10/28 06:37:42;;;;;;;63.00;6.83;;;15.10;1.00;;;;;;5051537;28;20468;-73
2022/10/28 06:40:09;;;;;;;68.27;8.20;;;15.20;1.00;;;;;;5050883;28;20455;-73
2022/10/28 06:42:36;;;;;;;69.20;7.57;;;15.20;1.00;;;;;;5051548;28;20459;-73
2022/10/28 06:45:04;;;;;;;64.77;7.37;;;15.20;1.00;;;;;;5051409;28;20455;-73
2022/10/28 06:47:30;;;;;;;64.57;7.90;;;15.30;1.00;;;;;;5051284;28;20470;-73
2022/10/28 06:49:59;;;;;;;63.87;7.43;;;15.30;1.00;;;;;;5050558;28;20490;-73
2022/10/28 06:52:25;;;;;;;65.23;7.37;;;15.40;1.00;;;;;;5051570;28;20470;-73
2022/10/28 06:54:52;;;;;;;68.03;6.87;;;15.40;1.00;;;;;;5051491;28;20452;-73
2022/10/28 06:57:19;;;;;;;72.80;8.03;;;15.50;1.00;;;;;;5051393;28;20479;-73
2022/10/28 06:59:46;;;;;;;62.23;6.53;;;15.50;1.00;;;;;;5050542;28;20957;-73
2022/10/28 07:02:12;;;;;;;66.27;7.70;;;15.50;1.00;;;;;;5051076;28;20765;-73
2022/10/28 07:04:39;;;;;;;66.43;7.37;;;15.60;1.00;;;;;;5051460;28;20471;-73
2022/10/28 07:07:07;;;;;;;66.50;7.53;;;15.60;1.00;;;;;;5051364;28;20472;-73
2022/10/28 07:09:38;;;;;;;65.80;7.60;;;15.60;1.00;;;;;;5050407;28;20484;-73
2022/10/28 07:12:05;;;;;;;68.93;8.37;;;15.70;1.00;;;;;;5051322;28;20460;-73
2022/10/28 07:14:33;;;;;;;66.57;7.10;;;15.80;1.00;;;;;;5051055;28;20454;-73
2022/10/28 07:17:00;;;;;;;81.63;8.03;;;16.00;1.00;;;;;;5052492;28;20476;-73
2022/10/28 07:19:27;;;;;;;67.77;7.90;;;16.10;1.00;;;;;;5054462;28;20531;-73
2022/10/28 07:21:53;;;;;;;65.03;7.80;;;16.10;1.00;;;;;;5055119;28;20458;-73
2022/10/28 07:24:22;;;;;;;68.60;6.80;;;16.20;1.00;;;;;;5055026;28;20451;-73
2022/10/28 07:26:48;;;;;;;65.87;7.40;;;16.20;1.00;;;;;;5054960;28;20829;-73
2022/10/28 07:29:15;;;;;;;64.70;7.50;;;16.30;1.00;;;;;;5053948;28;20478;-73
2022/10/28 07:31:42;;;;;;;66.13;7.73;;;16.40;1.00;;;;;;5054845;28;20451;-73
2022/10/28 07:34:09;;;;;;;63.40;7.03;;;16.60;1.00;;;;;;5054803;28;20456;-73
2022/10/28 07:36:36;;;;;;;65.83;7.03;;;16.70;1.00;;;;;;5054799;28;20498;-73
2022/10/28 07:39:03;;;;;;;65.10;7.40;;;16.80;1.00;;;;;;5053982;28;20444;-73
2022/10/28 07:41:31;;;;;;;64.80;6.50;;;16.90;1.00;;;;;;5054682;28;20475;-73
2022/10/28 07:43:58;;;;;;;68.47;7.13;;;17.10;1.00;;;;;;5054496;28;20956;-73
2022/10/28 07:46:25;;;;;;;67.50;6.73;;;17.10;1.00;;;;;;5054428;28;20472;-73
2022/10/28 07:48:51;;;;;;;64.43;6.10;;;17.20;1.00;;;;;;5053823;28;20832;-73
2022/10/28 07:51:18;;;;;;;64.10;6.33;;;17.30;1.00;;;;;;5054276;28;20478;-73
2022/10/28 07:53:45;;;;;;;63.20;6.50;;;17.30;1.00;;;;;;5054513;28;20454;-73
2022/10/28 07:56:13;;;;;;;64.37;6.40;;;17.40;1.00;;;;;;5054211;28;20831;-73
2022/10/28 07:58:42;;;;;;;61.43;5.77;;;17.50;1.00;;;;;;5053864;28;20456;-73
2022/10/28 08:01:10;;;;;;;65.27;6.80;;;17.60;1.00;;;;;;5054465;28;20448;-73
2022/10/28 08:03:38;;;;;;;68.07;7.23;;;17.80;1.00;;;;;;5054293;28;20452;-73
2022/10/28 08:06:08;;;;;;;63.70;6.70;;;17.70;1.00;;;;;;5054074;28;20453;-73
2022/10/28 08:08:34;;;;;;;63.80;6.23;;;17.90;1.00;;;;;;5053437;28;20455;-73
2022/10/28 08:11:09;;;;;;;65.30;7.17;;;18.10;1.00;;;;;;5053970;28;20495;-73
2022/10/28 08:13:36;;;;;;;66.17;7.73;;;18.30;1.00;;;;;;5054249;28;20455;-71
2022/10/28 08:16:04;;;;;;;73.70;8.70;;;18.40;1.00;;;;;;5054086;28;20448;-71
2022/10/28 08:18:31;;;;;;;64.90;7.47;;;18.40;1.00;;;;;;5053712;28;20455;-71
2022/10/28 08:20:59;;;;;;;66.33;7.47;;;18.30;1.00;;;;;;5053628;28;20941;-71
2022/10/28 08:23:26;;;;;;;68.37;7.77;;;18.50;1.00;;;;;;5053731;28;20453;-71
2022/10/28 08:25:53;;;;;;;66.80;8.37;;;18.50;1.00;;;;;;5053981;28;20448;-71
2022/10/28 08:28:20;;;;;;;68.70;7.73;;;18.50;1.00;;;;;;5053360;28;20472;-71
2022/10/28 08:30:47;;;;;;;66.47;7.90;;;18.70;1.00;;;;;;5053136;28;20871;-71
2022/10/28 08:33:16;;;;;;;65.93;7.80;;;18.90;1.00;;;;;;5053739;28;20459;-71
2022/10/28 08:35:42;;;;;;;69.07;7.60;;;18.90;1.00;;;;;;5053483;28;20460;-71
2022/10/28 08:38:09;;;;;;;72.20;7.53;;;18.90;1.00;;;;;;5053309;28;20480;-71
2022/10/28 08:40:42;;;;;;;68.90;7.53;;;19.00;1.00;;;;;;5052777;28;20440;-71
2022/10/28 08:43:20;;;;;;;68.97;8.70;;;18.70;1.00;;;;;;5053708;28;20448;-71
2022/10/28 08:45:53;;;;;;;65.90;7.33;;;18.70;1.00;;;;;;5053552;28;20776;-71
2022/10/28 08:48:28;;;;;;;69.30;7.97;;;19.00;1.00;;;;;;5049146;28;20472;-71
2022/10/28 08:50:59;;;;;;;62.90;6.60;;;19.10;1.00;;;;;;5052631;28;20579;-71
2022/10/28 08:53:32;;;;;;;63.57;6.90;;;19.00;1.00;;;;;;5053009;28;20952;-70
2022/10/28 08:56:08;;;;;;;65.60;7.10;;;18.70;1.00;;;;;;5053269;28;20451;-70
2022/10/28 08:58:38;;;;;;;65.53;7.53;;;18.70;1.00;;;;;;5052245;28;20452;-70
2022/10/28 09:01:13;;;;;;;67.80;7.37;;;18.40;1.00;;;;;;5052835;28;20479;-71
2022/10/28 09:03:45;;;;;;;69.67;7.40;;;18.00;1.00;;;;;;5052851;28;20471;-70
2022/10/28 09:06:12;;;;;;;65.17;6.40;;;18.40;1.00;;;;;;5052898;28;20547;-71
2022/10/28 09:08:42;;;;;;;69.27;7.30;;;18.70;1.00;;;;;;5052027;28;20456;-71
2022/10/28 09:11:21;;;;;;;65.27;7.60;;;18.70;1.00;;;;;;5052613;28;21005;-71
2022/10/28 09:14:02;;;;;;;67.57;6.97;;;18.60;1.00;;;;;;5052521;28;20937;-70
2022/10/28 09:16:40;;;;;;;66.80;7.40;;;18.40;1.00;;;;;;5052730;28;20478;-72
2022/10/28 09:19:16;;;;;;;65.90;7.30;;;19.00;1.00;;;;;;5051876;28;20452;-73
2022/10/28 09:21:48;;;;;;;67.63;7.13;;;19.70;1.00;;;;;;5052251;28;20460;-73
2022/10/28 09:24:19;;;;;;;66.70;7.23;;;20.10;1.00;;;;;;5052613;28;20444;-73
2022/10/28 09:26:54;;;;;;;62.80;6.17;;;20.30;1.00;;;;;;5052954;28;20530;-73
2022/10/28 09:29:35;;;;;;;63.20;6.40;;;20.40;1.00;;;;;;5051802;28;20458;-73
2022/10/28 09:32:08;;;;;;;64.13;7.40;;;20.70;1.00;;;;;;5052435;28;20920;-73
2022/10/28 09:34:44;;;;;;;69.07;7.27;;;20.50;1.00;;;;;;5052552;28;20456;-73
2022/10/28 09:37:17;;;;;;;67.33;6.30;;;20.30;1.00;;;;;;5052604;28;20478;-73
2022/10/28 09:39:48;;;;;;;64.97;6.80;;;20.50;1.00;;;;;;5050956;28;20459;-73
2022/10/28 09:42:20;;;;;;;66.30;7.17;;;20.60;1.00;;;;;;5052471;28;20919;-73
2022/10/28 09:44:54;;;;;;;63.70;6.80;;;20.50;1.00;;;;;;5052264;28;20828;-73
2022/10/28 09:47:25;;;;;;;68.47;7.40;;;19.90;1.00;;;;;;5052462;28;20482;-73
2022/10/28 09:49:58;;;;;;;68.77;8.00;;;19.10;1.00;;;;;;5051599;28;20488;-73
2022/10/28 09:52:28;;;;;;;68.93;8.20;;;18.60;1.00;;;;;;5052197;28;20462;-73
2022/10/28 09:54:58;;;;;;;67.07;7.77;;;18.40;1.00;;;;;;5052082;28;20834;-73
2022/10/28 09:57:30;;;;;;;63.77;7.10;;;18.40;1.00;;;;;;5052185;28;20468;-73
2022/10/28 09:59:58;;;;;;;65.60;6.73;;;18.30;1.00;;;;;;5051453;28;20452;-73
2022/10/28 10:02:28;;;;;;;66.37;7.80;;;18.90;1.00;;;;;;5052276;28;20955;-73
2022/10/28 10:04:58;;;;;;;67.73;6.67;;;19.60;1.00;;;;;;5052275;28;20474;-73
2022/10/28 10:07:37;;;;;;;65.70;6.83;;;20.40;1.00;;;;;;5051655;28;20482;-73
2022/10/28 10:10:11;;;;;;;69.47;7.50;;;20.90;1.00;;;;;;5051403;28;20847;-73
2022/10/28 10:12:38;;;;;;;72.80;6.50;;;21.90;1.00;;;;;;5050001;28;20440;-73
2022/10/28 10:15:08;;;;;;;68.40;6.50;;;23.00;1.00;;;;;;5051034;28;20452;-72
2022/10/28 10:17:40;;;;;;;67.00;6.10;;;24.10;1.00;;;;;;5052132;28;20530;-72
2022/10/28 10:20:10;;;;;;;66.10;5.70;;;26.40;1.00;;;;;;5050919;28;20472;-73
2022/10/28 10:22:39;;;;;;;65.67;6.33;;;28.50;1.00;;;;;;5051778;28;20936;-73
2022/10/28 10:25:28;;;;;;;65.20;7.10;;;30.40;99.90;;;;;;5052008;28;21042;-72
2022/10/28 10:27:59;;;;;;;65.40;5.13;;;32.80;99.90;;;;;;5051844;28;20468;-72
2022/10/28 10:30:29;;;;;;;65.93;5.50;;;32.90;99.90;;;;;;5051016;28;20484;-72
2022/10/28 10:32:57;;;;;;;63.77;5.37;;;32.30;99.90;;;;;;5051745;28;20455;-72
2022/10/28 10:35:28;;;;;;;64.50;5.60;;;32.90;99.90;;;;;;5051363;28;20456;-72
2022/10/28 10:37:57;;;;;;;65.70;5.17;;;33.30;99.90;;;;;;5051409;28;21003;-72
2022/10/28 10:40:29;;;;;;;68.10;5.53;;;35.10;99.90;;;;;;5050727;28;20858;-74
2022/10/28 10:43:13;;;;;;;69.77;5.13;;;34.60;99.90;;;;;;5051664;28;20459;-72
2022/10/28 10:45:40;;;;;;;63.03;4.60;;;33.10;99.90;;;;;;5052012;28;20505;-72
2022/10/28 10:48:13;;;;;;;64.37;4.03;;;31.50;99.90;;;;;;5051581;28;20547;-72
2022/10/28 10:50:43;;;;;;;62.17;4.83;;;30.50;99.90;;;;;;5051867;28;20476;-72
2022/10/28 10:53:25;;;;;;;63.83;5.13;;;29.90;99.90;;;;;;5055184;28;20452;-73
2022/10/28 10:55:57;;;;;;;65.83;4.63;;;28.50;99.90;;;;;;5055653;28;20446;-74
2022/10/28 10:58:28;;;;;;;65.40;5.07;;;27.30;99.90;;;;;;5055654;28;20452;-74
2022/10/28 11:00:57;;;;;;;64.03;5.53;;;26.50;99.90;;;;;;5055083;28;20444;-72
2022/10/28 11:03:28;;;;;;;64.87;5.40;;;26.10;99.90;;;;;;5055430;28;20455;-72
2022/10/28 11:05:58;;;;;;;62.17;4.93;;;25.90;99.90;;;;;;5055301;28;20484;-72
2022/10/28 11:08:33;;;;;;;63.83;4.97;;;26.00;99.90;;;;;;5055427;28;20449;-72
2022/10/28 11:11:12;;;;;;;63.00;4.70;;;26.10;99.90;;;;;;5055119;28;21024;-72
2022/10/28 11:13:40;;;;;;;63.70;4.80;;;26.10;99.90;;;;;;5055281;28;20888;-72
2022/10/28 11:16:17;;;;;;;63.93;5.17;;;26.10;99.90;;;;;;5055039;28;20463;-72
2022/10/28 11:18:46;;;;;;;62.40;5.00;;;26.10;99.90;;;;;;5054431;28;20467;-72
2022/10/28 11:21:42;;;;;;;60.23;4.67;;;26.30;99.90;;;;;;5055130;28;20456;-72
2022/10/28 11:24:35;;;;;;;63.20;4.80;;;26.60;99.90;;;;;;5049837;28;20456;-73
2022/10/28 11:27:11;;;;;;;66.00;4.73;;;26.80;99.90;;;;;;5046994;28;20486;-74
2022/10/28 11:29:39;;;;;;;65.23;5.60;;;27.20;99.90;;;;;;5054192;28;20444;-74
2022/10/28 11:32:28;;;;;;;62.17;4.93;;;27.10;99.90;;;;;;5054742;28;20480;-74
2022/10/28 11:35:25;;;;;;;68.17;5.77;;;26.70;99.90;;;;;;5054114;28;20463;-74
2022/10/28 11:38:06;;;;;;;61.27;4.70;;;26.40;99.90;;;;;;5051754;28;20483;-72
2022/10/28 11:40:45;;;;;;;63.40;5.23;;;26.40;99.90;;;;;;5053515;28;20476;-72
2022/10/28 11:43:22;;;;;;;64.87;5.50;;;26.40;99.90;;;;;;5053339;28;20480;-73
2022/10/28 11:45:57;;;;;;;61.30;4.70;;;26.60;99.90;;;;;;5053587;28;20443;-72
2022/10/28 11:48:39;;;;;;;66.00;4.60;;;26.50;99.90;;;;;;5054223;28;20978;-72
2022/10/28 11:51:19;;;;;;;63.60;4.70;;;26.30;99.90;;;;;;5053815;28;20491;-72
2022/10/28 11:54:33;;;;;;;64.10;4.87;;;25.90;99.90;;;;;;5053195;28;20468;-72
2022/10/28 11:57:06;;;;;;;60.07;4.57;;;25.10;99.90;;;;;;4992456;28;20471;-72
2022/10/28 12:00:12;;;;;;;64.10;5.63;;;24.50;1.00;;;;;;5040961;28;20460;-72
2022/10/28 12:03:00;;;;;;;62.70;5.20;;;24.20;1.00;;;;;;5027142;28;20463;-72
2022/10/28 12:05:35;;;;;;;65.10;5.97;;;23.80;1.00;;;;;;5054359;28;20731;-72
2022/10/28 12:08:19;;;;;;;66.40;6.00;;;23.80;1.00;;;;;;5053857;28;20959;-73
2022/10/28 12:11:00;;;;;;;64.00;5.83;;;23.70;1.00;;;;;;5053626;28;20499;-73
2022/10/28 12:13:37;;;;;;;65.60;6.83;;;23.70;1.00;;;;;;5053967;28;20820;-72
2022/10/28 12:16:11;;;;;;;67.50;7.77;;;23.70;1.00;;;;;;5054064;28;20448;-72
2022/10/28 12:18:47;;;;;;;63.70;5.87;;;23.30;1.00;;;;;;5053854;28;20456;-73
2022/10/28 12:21:22;;;;;;;66.10;5.27;;;23.20;99.90;;;;;;5054730;28;20448;-73
2022/10/28 12:23:49;;;;;;;60.50;4.57;;;23.80;1.00;;;;;;5055029;28;20454;-73
2022/10/28 12:26:19;;;;;;;62.17;4.73;;;24.50;1.00;;;;;;5053636;28;20440;-73
2022/10/28 12:28:53;;;;;;;61.27;5.30;;;25.20;99.90;;;;;;5052425;28;20462;-73
2022/10/28 12:31:24;;;;;;;61.10;4.97;;;26.10;99.90;;;;;;5053491;28;20479;-73
2022/10/28 12:33:55;;;;;;;61.20;4.73;;;27.10;99.90;;;;;;5053580;28;20456;-73
2022/10/28 12:36:32;;;;;;;61.83;5.00;;;28.10;99.90;;;;;;5053633;28;20478;-73
2022/10/28 12:39:04;;;;;;;63.00;5.27;;;30.20;99.90;;;;;;5053625;28;20463;-73
2022/10/28 12:41:46;;;;;;;61.67;5.00;;;31.30;99.90;;;;;;5053646;28;20440;-73
2022/10/28 12:44:18;;;;;;;65.33;4.70;;;31.10;99.90;;;;;;5054097;28;20543;-73
2022/10/28 12:46:53;;;;;;;61.03;4.30;;;31.00;99.90;;;;;;5053211;28;20559;-73
2022/10/28 12:49:28;;;;;;;61.60;4.70;;;31.00;99.90;;;;;;5052662;28;20675;-73
2022/10/28 12:52:02;;;;;;;61.90;4.40;;;30.80;99.90;;;;;;5052711;28;20484;-73
2022/10/28 12:54:37;;;;;;;62.20;4.50;;;31.70;99.90;;;;;;5053681;28;20544;-73
2022/10/28 12:57:10;;;;;;;61.97;5.10;;;34.00;99.90;;;;;;5053295;28;20479;-73
2022/10/28 12:59:42;;;;;;;60.20;4.17;;;36.10;99.90;;;;;;5052468;28;20463;-73
2022/10/28 13:02:17;;;;;;;62.70;4.40;;;36.90;99.90;;;;;;5053024;28;20543;-73
2022/10/28 13:04:44;;;;;;;64.13;4.60;;;38.50;99.90;;;;;;5052739;28;20940;-73